createdAt,value
2022-10-05T00:00:13.313Z,4.90
2022-10-05T00:02:41.259Z,4.80
2022-10-05T00:05:24.759Z,4.80
2022-10-05T00:07:54.948Z,4.80
2022-10-05T00:10:22.967Z,4.80
2022-10-05T00:12:50.818Z,4.80
2022-10-05T00:15:20.493Z,4.70
2022-10-05T00:17:48.492Z,4.60
2022-10-05T00:20:22.772Z,4.50
2022-10-05T00:22:56.538Z,4.50
2022-10-05T00:25:25.204Z,4.50
2022-10-05T00:27:56.660Z,4.50
2022-10-05T00:30:26.168Z,4.60
2022-10-05T00:32:59.289Z,4.70
2022-10-05T00:35:29.198Z,4.70
2022-10-05T00:37:58.457Z,4.70
2022-10-05T00:40:38.388Z,4.70
2022-10-05T00:43:27.922Z,4.70
2022-10-05T00:46:01.026Z,4.70
2022-10-05T00:48:37.110Z,4.70
2022-10-05T00:51:17.888Z,4.80
2022-10-05T00:53:54.233Z,4.90
2022-10-05T00:56:39.441Z,5.00
2022-10-05T00:59:19.682Z,4.90
2022-10-05T01:01:58.146Z,4.80
2022-10-05T01:04:31.227Z,4.70
2022-10-05T01:07:09.096Z,4.50
2022-10-05T01:09:46.157Z,4.40
2022-10-05T01:12:22.720Z,4.60
2022-10-05T01:14:56.234Z,4.60
2022-10-05T01:17:30.019Z,4.70
2022-10-05T01:20:12.360Z,4.80
2022-10-05T01:22:59.882Z,4.70
2022-10-05T01:25:34.467Z,4.60
2022-10-05T01:28:08.178Z,4.40
2022-10-05T01:30:42.950Z,4.30
2022-10-05T01:33:17.729Z,4.30
2022-10-05T01:35:54.984Z,4.30
2022-10-05T01:38:35.100Z,4.40
2022-10-05T01:41:14.689Z,4.60
2022-10-05T01:43:47.187Z,4.60
2022-10-05T01:46:25.327Z,4.60
2022-10-05T01:49:04.511Z,4.60
2022-10-05T01:51:43.999Z,4.50
2022-10-05T01:54:23.338Z,4.50
2022-10-05T01:56:58.584Z,4.60
2022-10-05T01:59:37.176Z,4.70
2022-10-05T02:02:08.598Z,4.70
2022-10-05T02:05:01.493Z,4.50
2022-10-05T02:07:35.146Z,4.40
2022-10-05T02:10:08.874Z,4.50
2022-10-05T02:12:39.225Z,4.50
2022-10-05T02:15:14.819Z,4.50
2022-10-05T02:17:48.076Z,4.50
2022-10-05T02:20:21.946Z,4.40
2022-10-05T02:22:52.654Z,4.40
2022-10-05T02:25:23.916Z,4.30
2022-10-05T02:27:54.921Z,4.30
2022-10-05T02:30:24.426Z,4.30
2022-10-05T02:32:58.811Z,4.30
2022-10-05T02:35:26.818Z,4.30
2022-10-05T02:38:04.464Z,4.20
2022-10-05T02:40:47.205Z,4.10
2022-10-05T02:43:26.354Z,4.00
2022-10-05T02:46:04.052Z,4.10
2022-10-05T02:48:40.250Z,4.20
2022-10-05T02:51:17.797Z,4.20
2022-10-05T02:53:54.765Z,4.30
2022-10-05T02:56:30.953Z,4.40
2022-10-05T02:59:04.213Z,4.50
2022-10-05T03:01:38.282Z,4.60
2022-10-05T03:04:17.875Z,4.60
2022-10-05T03:06:54.091Z,4.60
2022-10-05T03:09:24.272Z,4.40
2022-10-05T03:12:00.021Z,4.30
2022-10-05T03:14:34.509Z,4.30
2022-10-05T03:17:11.483Z,4.30
2022-10-05T03:19:51.582Z,4.20
2022-10-05T03:22:29.850Z,4.20
2022-10-05T03:25:19.655Z,4.30
2022-10-05T03:27:54.836Z,4.30
2022-10-05T03:30:26.488Z,4.50
2022-10-05T03:33:04.058Z,4.90
2022-10-05T03:35:35.052Z,5.10
2022-10-05T03:38:10.466Z,5.10
2022-10-05T03:40:45.735Z,4.70
2022-10-05T03:43:25.828Z,4.40
2022-10-05T03:46:04.816Z,4.10
2022-10-05T03:48:40.992Z,4.00
2022-10-05T03:51:16.662Z,4.00
2022-10-05T03:53:50.318Z,4.10
2022-10-05T03:56:24.002Z,4.10
2022-10-05T03:58:58.180Z,4.20
2022-10-05T04:01:34.654Z,4.40
2022-10-05T04:04:08.461Z,4.60
2022-10-05T04:06:39.505Z,4.70
2022-10-05T04:09:14.255Z,4.60
2022-10-05T04:11:49.789Z,4.40
2022-10-05T04:14:22.585Z,4.30
2022-10-05T04:16:55.958Z,4.20
2022-10-05T04:19:28.757Z,4.30
2022-10-05T04:22:05.751Z,4.30
2022-10-05T04:24:38.602Z,4.30
2022-10-05T04:27:10.471Z,4.30
2022-10-05T04:29:43.047Z,4.30
2022-10-05T04:32:26.612Z,4.20
2022-10-05T04:35:09.751Z,4.30
2022-10-05T04:37:46.970Z,4.30
2022-10-05T04:40:32.288Z,4.40
2022-10-05T04:43:09.335Z,4.30
2022-10-05T04:45:55.497Z,4.30
2022-10-05T04:48:54.982Z,4.30
2022-10-05T04:51:35.578Z,4.40
2022-10-05T04:54:12.611Z,4.40
2022-10-05T04:56:46.550Z,4.50
2022-10-05T04:59:29.447Z,4.50
2022-10-05T05:02:08.271Z,4.30
2022-10-05T05:04:59.511Z,4.10
2022-10-05T05:07:41.508Z,3.90
2022-10-05T05:10:41.831Z,3.70
2022-10-05T05:13:28.462Z,3.70
2022-10-05T05:16:02.153Z,3.60
2022-10-05T05:18:47.060Z,3.70
2022-10-05T05:21:25.573Z,3.80
2022-10-05T05:24:06.217Z,3.90
2022-10-05T05:26:45.479Z,4.00
2022-10-05T05:29:23.505Z,4.10
2022-10-05T05:31:58.798Z,4.10
2022-10-05T05:34:41.077Z,4.10
2022-10-05T05:37:20.876Z,4.30
2022-10-05T05:39:59.345Z,4.20
2022-10-05T05:42:36.816Z,4.20
2022-10-05T05:45:16.516Z,4.40
2022-10-05T05:47:52.000Z,4.30
2022-10-05T05:50:32.382Z,4.30
2022-10-05T05:53:05.972Z,4.30
2022-10-05T05:55:39.333Z,4.30
2022-10-05T05:58:15.850Z,4.20
2022-10-05T06:00:49.505Z,4.10
2022-10-05T06:03:22.308Z,4.20
2022-10-05T06:05:53.768Z,4.70
2022-10-05T06:08:28.012Z,5.50
2022-10-05T06:11:00.734Z,6.00
2022-10-05T06:13:32.350Z,6.20
2022-10-05T06:16:07.350Z,6.40
2022-10-05T06:18:37.456Z,6.90
2022-10-05T06:21:12.549Z,7.60
2022-10-05T06:23:48.637Z,8.20
2022-10-05T06:26:29.421Z,8.40
2022-10-05T06:29:01.578Z,8.40
2022-10-05T06:31:57.908Z,8.60
2022-10-05T06:34:38.889Z,8.90
2022-10-05T06:37:13.448Z,9.50
2022-10-05T06:40:10.186Z,10.00
2022-10-05T06:43:11.629Z,10.00
2022-10-05T06:45:52.894Z,9.50
2022-10-05T06:48:32.518Z,9.50
2022-10-05T06:51:12.443Z,9.50
2022-10-05T06:53:49.276Z,9.60
2022-10-05T06:56:21.046Z,9.80
2022-10-05T06:59:00.558Z,10.20
2022-10-05T07:01:39.006Z,10.50
2022-10-05T07:04:23.814Z,10.70
2022-10-05T07:06:56.066Z,11.10
2022-10-05T07:09:38.210Z,11.50
2022-10-05T07:12:26.512Z,11.60
2022-10-05T07:15:11.182Z,12.00
2022-10-05T07:17:50.856Z,12.40
2022-10-05T07:20:25.018Z,12.60
2022-10-05T07:23:05.175Z,12.80
2022-10-05T07:25:37.813Z,13.10
2022-10-05T07:28:10.384Z,13.20
2022-10-05T07:30:47.972Z,13.40
2022-10-05T07:33:21.893Z,13.50
2022-10-05T07:36:16.078Z,13.60
2022-10-05T07:38:53.688Z,13.80
2022-10-05T07:41:26.991Z,14.10
2022-10-05T07:44:03.004Z,14.20
2022-10-05T07:46:47.628Z,14.50
2022-10-05T07:49:24.334Z,14.60
2022-10-05T07:51:56.730Z,14.80
2022-10-05T07:54:29.503Z,15.00
2022-10-05T07:57:06.871Z,15.30
2022-10-05T07:59:43.848Z,15.60
2022-10-05T08:02:23.708Z,15.80
2022-10-05T08:04:58.259Z,15.70
2022-10-05T08:07:26.515Z,15.70
2022-10-05T08:09:59.437Z,15.80
2022-10-05T08:12:33.240Z,15.80
2022-10-05T08:15:06.490Z,16.00
2022-10-05T08:17:46.828Z,16.20
2022-10-05T08:20:29.295Z,16.60
2022-10-05T08:23:01.815Z,16.90
2022-10-05T08:25:39.626Z,17.10
2022-10-05T08:28:14.703Z,17.30
2022-10-05T08:31:02.906Z,17.30
2022-10-05T08:33:40.026Z,17.40
2022-10-05T08:36:13.607Z,17.70
2022-10-05T08:38:42.533Z,17.90
2022-10-05T08:41:44.916Z,18.20
2022-10-05T08:44:46.626Z,18.30
2022-10-05T08:47:22.537Z,17.40
2022-10-05T08:50:20.305Z,17.50
2022-10-05T08:53:20.388Z,18.00
2022-10-05T08:56:04.207Z,17.90
2022-10-05T08:59:11.649Z,18.20
2022-10-05T09:01:56.405Z,18.70
2022-10-05T09:04:36.163Z,18.80
2022-10-05T09:07:19.722Z,19.20
2022-10-05T09:10:04.474Z,19.50
2022-10-05T09:12:47.513Z,19.70
2022-10-05T09:15:35.549Z,19.60
2022-10-05T09:18:46.684Z,19.90
2022-10-05T09:21:20.995Z,19.80
2022-10-05T09:24:05.870Z,20.00
2022-10-05T09:26:44.923Z,20.00
2022-10-05T09:30:00.885Z,20.30
2022-10-05T09:33:00.040Z,20.30
2022-10-05T09:35:57.991Z,20.10
2022-10-05T09:38:37.217Z,20.00
2022-10-05T09:41:39.077Z,19.70
2022-10-05T09:44:41.678Z,19.70
2022-10-05T09:47:45.064Z,19.80
2022-10-05T09:50:44.339Z,19.80
2022-10-05T09:53:40.808Z,19.80
2022-10-05T09:56:30.037Z,20.00
2022-10-05T09:59:36.720Z,20.00
2022-10-05T10:02:19.367Z,20.20
2022-10-05T10:05:09.903Z,20.30
2022-10-05T10:08:16.187Z,20.50
2022-10-05T10:11:01.356Z,20.70
2022-10-05T10:13:53.315Z,20.70
2022-10-05T10:16:33.999Z,20.70
2022-10-05T10:19:13.644Z,20.80
2022-10-05T10:22:10.185Z,20.80
2022-10-05T10:25:00.016Z,21.00
2022-10-05T10:27:55.594Z,20.80
2022-10-05T10:30:54.155Z,20.60
2022-10-05T10:33:47.239Z,20.80
2022-10-05T10:36:19.767Z,20.90
2022-10-05T10:39:00.748Z,21.20
2022-10-05T10:41:52.798Z,21.00
2022-10-05T10:44:58.821Z,21.20
2022-10-05T10:47:41.017Z,21.20
2022-10-05T10:50:46.389Z,21.00
2022-10-05T10:53:42.121Z,20.80
2022-10-05T10:56:38.765Z,20.70
2022-10-05T10:59:41.317Z,20.90
2022-10-05T11:02:27.926Z,21.00
2022-10-05T11:05:09.210Z,21.00
2022-10-05T11:07:53.533Z,21.10
2022-10-05T11:10:33.676Z,21.00
2022-10-05T11:13:35.454Z,21.30
2022-10-05T11:16:34.438Z,21.30
2022-10-05T11:20:03.167Z,21.20
2022-10-05T11:22:55.709Z,21.30
2022-10-05T11:25:44.557Z,21.40
2022-10-05T11:28:29.488Z,21.30
2022-10-05T11:31:44.709Z,21.20
2022-10-05T11:34:43.981Z,21.30
2022-10-05T11:37:50.206Z,21.40
2022-10-05T11:40:53.353Z,21.50
2022-10-05T11:43:54.816Z,21.70
2022-10-05T11:46:28.623Z,21.70
2022-10-05T11:49:17.757Z,21.60
2022-10-05T11:52:06.332Z,21.70
2022-10-05T11:55:16.659Z,21.50
2022-10-05T11:57:51.857Z,21.50
2022-10-05T12:00:21.842Z,21.50
2022-10-05T12:03:29.958Z,21.50
2022-10-05T12:06:15.951Z,21.60
2022-10-05T12:08:56.896Z,21.60
2022-10-05T12:11:40.729Z,21.70
2022-10-05T12:14:20.998Z,21.80
2022-10-05T12:16:54.545Z,21.80
2022-10-05T12:19:29.722Z,21.60
2022-10-05T12:22:03.808Z,21.70
2022-10-05T12:24:54.846Z,21.80
2022-10-05T12:27:27.517Z,22.00
2022-10-05T12:30:03.703Z,22.10
2022-10-05T12:32:37.852Z,22.20
2022-10-05T12:35:14.618Z,22.30
2022-10-05T12:37:48.729Z,22.50
2022-10-05T12:40:25.505Z,22.20
2022-10-05T12:43:01.459Z,22.30
2022-10-05T12:45:45.997Z,22.40
2022-10-05T12:48:49.147Z,22.50
2022-10-05T12:51:23.443Z,22.40
2022-10-05T12:53:58.926Z,22.50
2022-10-05T12:56:42.177Z,22.50
2022-10-05T12:59:18.962Z,22.60
2022-10-05T13:01:57.616Z,22.50
2022-10-05T13:04:38.357Z,22.30
2022-10-05T13:07:23.474Z,22.40
2022-10-05T13:10:03.608Z,22.50
2022-10-05T13:12:42.531Z,22.40
2022-10-05T13:15:19.850Z,22.40
2022-10-05T13:17:55.763Z,22.40
2022-10-05T13:20:30.541Z,22.40
2022-10-05T13:23:03.171Z,22.50
2022-10-05T13:25:33.623Z,22.60
2022-10-05T13:28:15.785Z,22.50
2022-10-05T13:31:01.123Z,22.50
2022-10-05T13:33:49.360Z,22.40
2022-10-05T13:36:25.438Z,22.60
2022-10-05T13:38:58.942Z,22.50
2022-10-05T13:41:45.380Z,22.40
2022-10-05T13:44:23.619Z,22.40
2022-10-05T13:46:58.216Z,22.50
2022-10-05T13:49:37.957Z,22.60
2022-10-05T13:52:27.076Z,22.70
2022-10-05T13:55:01.099Z,22.60
2022-10-05T13:57:45.250Z,22.50
2022-10-05T14:00:22.704Z,22.50
2022-10-05T14:02:56.608Z,22.40
2022-10-05T14:05:27.986Z,22.30
2022-10-05T14:07:58.553Z,22.30
2022-10-05T14:10:37.460Z,22.30
2022-10-05T14:13:21.250Z,22.40
2022-10-05T14:16:19.728Z,22.30
2022-10-05T14:18:57.518Z,22.30
2022-10-05T14:21:29.734Z,22.30
2022-10-05T14:24:32.151Z,22.30
2022-10-05T14:27:20.910Z,22.20
2022-10-05T14:29:57.699Z,22.00
2022-10-05T14:32:27.520Z,21.90
2022-10-05T14:35:13.752Z,21.70
2022-10-05T14:37:52.019Z,21.60
2022-10-05T14:40:33.166Z,21.40
2022-10-05T14:43:17.128Z,21.40
2022-10-05T14:45:55.008Z,21.40
2022-10-05T14:48:23.355Z,21.20
2022-10-05T14:50:55.456Z,21.10
2022-10-05T14:53:26.180Z,21.10
2022-10-05T14:56:17.287Z,21.10
2022-10-05T14:59:00.049Z,21.20
2022-10-05T15:01:30.986Z,21.10
2022-10-05T15:04:09.130Z,21.00
2022-10-05T15:06:39.498Z,21.00
2022-10-05T15:09:31.121Z,20.90
2022-10-05T15:12:02.038Z,20.90
2022-10-05T15:14:33.166Z,20.90
2022-10-05T15:17:03.742Z,20.90
2022-10-05T15:19:44.699Z,20.90
2022-10-05T15:22:26.100Z,20.80
2022-10-05T15:25:06.477Z,20.80
2022-10-05T15:27:45.140Z,20.80
2022-10-05T15:30:17.866Z,20.80
2022-10-05T15:33:09.748Z,20.80
2022-10-05T15:35:54.319Z,20.80
2022-10-05T15:38:25.780Z,20.70
2022-10-05T15:41:11.077Z,20.70
2022-10-05T15:43:53.479Z,20.60
2022-10-05T15:46:28.742Z,20.50
2022-10-05T15:49:08.356Z,20.50
2022-10-05T15:51:56.401Z,20.50
2022-10-05T15:54:43.968Z,20.40
2022-10-05T15:57:22.420Z,20.40
2022-10-05T16:00:00.308Z,20.30
2022-10-05T16:02:38.831Z,20.30
2022-10-05T16:05:41.210Z,20.20
2022-10-05T16:08:35.055Z,19.90
2022-10-05T16:11:06.258Z,19.80
2022-10-05T16:13:41.207Z,19.70
2022-10-05T16:16:21.962Z,19.70
2022-10-05T16:19:00.525Z,19.60
2022-10-05T16:21:38.874Z,19.40
2022-10-05T16:24:18.836Z,19.30
2022-10-05T16:26:58.141Z,19.20
2022-10-05T16:29:40.251Z,19.00
2022-10-05T16:32:14.859Z,18.80
2022-10-05T16:34:56.077Z,18.50
2022-10-05T16:37:34.697Z,18.30
2022-10-05T16:40:09.037Z,18.10
2022-10-05T16:42:49.670Z,17.80
2022-10-05T16:45:45.630Z,17.50
2022-10-05T16:48:20.502Z,17.30
2022-10-05T16:50:57.961Z,17.10
2022-10-05T16:53:31.733Z,16.90
2022-10-05T16:56:05.024Z,16.80
2022-10-05T16:58:45.948Z,16.70
2022-10-05T17:01:29.983Z,16.60
2022-10-05T17:04:12.059Z,16.50
2022-10-05T17:07:26.226Z,16.50
2022-10-05T17:10:06.909Z,16.50
2022-10-05T17:12:51.057Z,16.50
2022-10-05T17:15:44.092Z,16.40
2022-10-05T17:18:52.066Z,16.20
2022-10-05T17:21:28.304Z,16.20
2022-10-05T17:24:04.159Z,16.00
2022-10-05T17:26:47.343Z,15.90
2022-10-05T17:29:18.209Z,15.70
2022-10-05T17:32:10.628Z,15.50
2022-10-05T17:35:01.343Z,15.60
2022-10-05T17:37:36.179Z,15.40
2022-10-05T17:40:33.858Z,15.30
2022-10-05T17:43:04.605Z,15.40
2022-10-05T17:45:53.461Z,15.40
2022-10-05T17:48:59.470Z,15.40
2022-10-05T17:52:17.200Z,15.30
2022-10-05T17:55:26.558Z,15.40
2022-10-05T17:57:58.502Z,15.60
2022-10-05T18:01:04.197Z,15.50
2022-10-05T18:03:44.100Z,15.70
2022-10-05T18:06:36.410Z,15.80
2022-10-05T18:09:37.570Z,15.80
2022-10-05T18:12:39.181Z,15.80
2022-10-05T18:15:23.043Z,15.80
2022-10-05T18:17:54.653Z,15.90
2022-10-05T18:20:31.896Z,15.90
2022-10-05T18:23:35.437Z,15.70
2022-10-05T18:26:26.421Z,15.40
2022-10-05T18:29:13.757Z,15.30
2022-10-05T18:31:53.234Z,15.30
2022-10-05T18:34:32.392Z,15.20
2022-10-05T18:37:12.219Z,15.00
2022-10-05T18:40:09.684Z,14.90
2022-10-05T18:42:45.989Z,14.80
2022-10-05T18:45:24.649Z,14.70
2022-10-05T18:48:06.605Z,14.80
2022-10-05T18:50:41.179Z,14.70
2022-10-05T18:53:19.024Z,14.60
2022-10-05T18:55:54.685Z,14.50
2022-10-05T18:58:26.839Z,14.50
2022-10-05T19:01:12.059Z,14.50
2022-10-05T19:03:49.482Z,14.50
2022-10-05T19:06:25.911Z,14.70
2022-10-05T19:09:03.830Z,14.80
2022-10-05T19:11:37.618Z,14.80
2022-10-05T19:14:15.227Z,14.90
2022-10-05T19:16:56.388Z,15.00
2022-10-05T19:19:53.852Z,14.90
2022-10-05T19:22:34.727Z,15.00
2022-10-05T19:25:20.489Z,15.10
2022-10-05T19:27:59.637Z,15.20
2022-10-05T19:30:32.002Z,15.30
2022-10-05T19:33:15.263Z,15.20
2022-10-05T19:35:57.393Z,15.20
2022-10-05T19:38:32.015Z,15.20
2022-10-05T19:41:10.880Z,15.00
2022-10-05T19:43:53.535Z,15.00
2022-10-05T19:46:32.801Z,15.00
2022-10-05T19:49:02.073Z,14.90
2022-10-05T19:51:32.258Z,14.90
2022-10-05T19:54:02.849Z,14.80
2022-10-05T19:56:34.701Z,14.80
2022-10-05T19:59:14.092Z,14.90
2022-10-05T20:01:50.444Z,14.80
2022-10-05T20:04:33.404Z,14.90
2022-10-05T20:07:02.016Z,15.00
2022-10-05T20:09:41.858Z,15.10
2022-10-05T20:12:09.636Z,15.10
2022-10-05T20:14:59.394Z,14.90
2022-10-05T20:17:45.427Z,14.80
2022-10-05T20:20:31.906Z,14.80
2022-10-05T20:23:24.395Z,14.80
2022-10-05T20:26:24.962Z,14.80
2022-10-05T20:28:52.739Z,14.80
2022-10-05T20:31:20.633Z,14.80
2022-10-05T20:33:48.483Z,14.80
2022-10-05T20:36:17.606Z,14.60
2022-10-05T20:38:45.406Z,14.60
2022-10-05T20:41:13.286Z,14.60
2022-10-05T20:43:41.105Z,14.70
2022-10-05T20:46:08.907Z,14.80
2022-10-05T20:48:37.016Z,15.00
2022-10-05T20:51:05.028Z,15.00
2022-10-05T20:53:34.552Z,15.10
2022-10-05T20:56:04.345Z,15.00
2022-10-05T20:58:32.117Z,15.00
2022-10-05T21:01:19.956Z,15.00
2022-10-05T21:03:48.010Z,15.20
2022-10-05T21:06:16.064Z,15.30
2022-10-05T21:08:46.674Z,15.30
2022-10-05T21:11:14.968Z,15.10
2022-10-05T21:13:44.711Z,15.10
2022-10-05T21:16:13.443Z,15.10
2022-10-05T21:18:41.507Z,15.10
2022-10-05T21:21:09.515Z,15.00
2022-10-05T21:23:37.713Z,15.10
2022-10-05T21:26:07.868Z,15.10
2022-10-05T21:28:35.728Z,15.10
2022-10-05T21:31:03.595Z,15.00
2022-10-05T21:33:31.679Z,15.00
2022-10-05T21:35:59.639Z,15.00
2022-10-05T21:38:27.906Z,15.00
2022-10-05T21:40:55.965Z,15.10
2022-10-05T21:43:26.098Z,15.00
2022-10-05T21:45:56.245Z,15.00
2022-10-05T21:48:24.442Z,15.20
2022-10-05T21:50:52.325Z,15.10
2022-10-05T21:53:23.741Z,15.00
2022-10-05T21:55:52.617Z,15.10
2022-10-05T21:58:22.916Z,15.10
2022-10-05T22:00:52.126Z,15.10
2022-10-05T22:03:21.482Z,15.10
2022-10-05T22:05:49.399Z,15.10
2022-10-05T22:08:23.435Z,15.00
2022-10-05T22:10:52.526Z,14.90
2022-10-05T22:13:20.306Z,14.90
2022-10-05T22:15:48.378Z,14.90
2022-10-05T22:18:19.117Z,14.90
2022-10-05T22:20:47.513Z,14.80
2022-10-05T22:23:15.323Z,14.70
2022-10-05T22:25:43.550Z,14.50
2022-10-05T22:28:14.204Z,14.40
2022-10-05T22:30:43.960Z,14.30
2022-10-05T22:33:12.202Z,14.30
2022-10-05T22:35:41.426Z,14.30
2022-10-05T22:38:09.215Z,14.30
2022-10-05T22:40:37.363Z,14.40
2022-10-05T22:43:05.158Z,14.40
2022-10-05T22:45:32.972Z,14.40
2022-10-05T22:48:00.791Z,14.50
2022-10-05T22:50:28.544Z,14.60
2022-10-05T22:52:57.677Z,14.70
2022-10-05T22:55:25.553Z,14.60
2022-10-05T22:57:53.353Z,14.40
2022-10-05T23:00:27.576Z,14.30
2022-10-05T23:02:59.087Z,14.30
2022-10-05T23:05:26.929Z,14.30
2022-10-05T23:07:54.822Z,14.20
2022-10-05T23:10:26.074Z,14.20
2022-10-05T23:13:00.707Z,14.10
2022-10-05T23:15:28.968Z,14.10
2022-10-05T23:17:57.339Z,14.10
2022-10-05T23:20:25.977Z,14.00
2022-10-05T23:22:53.765Z,14.00
2022-10-05T23:25:23.104Z,13.90
2022-10-05T23:27:51.035Z,13.90
2022-10-05T23:30:19.006Z,13.90
2022-10-05T23:32:46.810Z,13.90
2022-10-05T23:35:14.889Z,13.80
2022-10-05T23:37:44.306Z,14.00
2022-10-05T23:40:13.785Z,13.90
2022-10-05T23:42:43.133Z,14.00
2022-10-05T23:45:12.878Z,14.00
2022-10-05T23:47:41.126Z,13.90
2022-10-05T23:50:10.309Z,14.00
2022-10-05T23:52:38.547Z,14.00
2022-10-05T23:55:07.784Z,14.00
2022-10-05T23:57:35.550Z,14.00
